Time;durP1;ratioP1;P1;durP2;ratioP2;P2;SDS_P1;SDS_P2;PMS_P1;PMS_P2;Temp;Humidity;BMP_temperature;BMP_pressure;BME280_temperature;BME280_humidity;BME280_pressure;Samples;Min_cycle;Max_cycle;Signal;HPM_P1;HPM_P2
2021/06/02 00:00:09;;;;;;;5.72;1.70;;;19.20;41.80;;;;;;5012790;28;20437;-73
2021/06/02 00:02:39;;;;;;;2.90;1.58;;;19.20;41.90;;;;;;4988360;28;20056;-73
2021/06/02 00:05:05;;;;;;;2.75;1.55;;;19.20;41.90;;;;;;4987648;28;20073;-74
2021/06/02 00:07:32;;;;;;;3.13;1.40;;;19.10;42.10;;;;;;4992766;28;20043;-74
2021/06/02 00:09:59;;;;;;;2.35;1.20;;;19.20;42.20;;;;;;4993107;28;20731;-73
2021/06/02 00:12:24;;;;;;;2.15;1.42;;;19.20;42.20;;;;;;4992223;28;20113;-73
2021/06/02 00:14:50;;;;;;;6.35;1.77;;;19.10;42.30;;;;;;4994050;28;20109;-73
2021/06/02 00:17:17;;;;;;;1.80;1.27;;;19.10;42.40;;;;;;4992417;28;20046;-73
2021/06/02 00:19:43;;;;;;;2.15;1.10;;;19.00;42.40;;;;;;4992199;28;20112;-73
2021/06/02 00:22:09;;;;;;;1.52;1.00;;;19.10;42.80;;;;;;4985425;28;20050;-72
2021/06/02 00:24:35;;;;;;;4.63;1.20;;;19.00;42.90;;;;;;4975891;28;20023;-72
2021/06/02 00:27:05;;;;;;;3.60;1.90;;;19.00;43.10;;;;;;4992759;28;20454;-73
2021/06/02 00:29:35;;;;;;;2.65;1.40;;;18.90;43.30;;;;;;4992293;28;20104;-73
2021/06/02 00:32:03;;;;;;;3.55;1.85;;;18.90;43.50;;;;;;4992336;28;20356;-73
2021/06/02 00:34:29;;;;;;;;;;;18.90;43.50;;;;;;4991312;28;20030;-73
2021/06/02 00:36:57;;;;;;;6.43;1.45;;;18.90;43.70;;;;;;4992462;28;19921;-72
2021/06/02 00:39:23;;;;;;;3.83;1.70;;;18.90;43.90;;;;;;4992185;28;20026;-74
2021/06/02 00:41:48;;;;;;;2.28;1.42;;;18.90;44.30;;;;;;4993543;28;20039;-72
2021/06/02 00:44:17;;;;;;;5.28;1.40;;;18.90;44.40;;;;;;4991950;28;20038;-74
2021/06/02 00:46:44;;;;;;;3.03;1.30;;;18.80;44.50;;;;;;4991835;28;20033;-73
2021/06/02 00:49:24;;;;;;;3.03;1.33;;;18.80;45.20;;;;;;4990972;28;20352;-73
2021/06/02 00:52:03;;;;;;;3.78;1.35;;;18.80;44.90;;;;;;4990923;28;20035;-73
2021/06/02 00:54:31;;;;;;;2.00;1.33;;;18.70;44.90;;;;;;4991283;28;20030;-73
2021/06/02 00:57:17;;;;;;;2.08;1.23;;;18.70;45.10;;;;;;4993520;28;20050;-74
2021/06/02 01:00:08;;;;;;;4.00;1.52;;;18.70;45.30;;;;;;4991973;28;20068;-73
2021/06/02 01:02:39;;;;;;;3.70;1.52;;;18.70;45.70;;;;;;4984417;28;20047;-73
2021/06/02 01:05:09;;;;;;;5.53;1.80;;;18.70;45.80;;;;;;4991814;28;20039;-73
2021/06/02 01:07:36;;;;;;;6.25;1.88;;;18.70;45.90;;;;;;4991556;28;20544;-73
2021/06/02 01:10:03;;;;;;;1.77;1.33;;;18.60;46.00;;;;;;4991528;28;20372;-73
2021/06/02 01:12:30;;;;;;;1.55;1.40;;;18.60;46.40;;;;;;4991331;28;20026;-73
2021/06/02 01:14:58;;;;;;;3.75;1.55;;;18.60;46.60;;;;;;4992923;28;20030;-73
2021/06/02 01:17:28;;;;;;;2.20;1.58;;;18.50;46.70;;;;;;4991559;28;20108;-73
2021/06/02 01:19:57;;;;;;;4.68;1.40;;;18.50;46.80;;;;;;4991136;28;20112;-73
2021/06/02 01:22:23;;;;;;;6.03;1.50;;;18.50;47.10;;;;;;4991439;28;20031;-73
2021/06/02 01:24:48;;;;;;;3.90;1.83;;;18.40;47.40;;;;;;4989891;28;20096;-72
2021/06/02 01:27:14;;;;;;;5.68;1.75;;;18.40;47.40;;;;;;4993042;28;20050;-73
2021/06/02 01:29:58;;;;;;;3.40;1.58;;;18.40;47.60;;;;;;4991336;28;20051;-73
2021/06/02 01:32:26;;;;;;;2.80;1.60;;;18.30;47.80;;;;;;4990976;28;20484;-73
2021/06/02 01:35:20;;;;;;;4.00;1.55;;;18.30;48.10;;;;;;4990459;28;20065;-73
2021/06/02 01:37:48;;;;;;;2.67;2.00;;;18.30;48.50;;;;;;5010232;28;20041;-72
2021/06/02 01:40:19;;;;;;;5.30;1.85;;;18.30;48.60;;;;;;5010486;28;20046;-73
2021/06/02 01:43:00;;;;;;;4.80;1.75;;;18.20;48.80;;;;;;5010124;28;20144;-73
2021/06/02 01:45:47;;;;;;;4.43;2.00;;;18.20;48.90;;;;;;5010736;28;20032;-74
2021/06/02 01:48:31;;;;;;;3.50;1.80;;;18.20;49.30;;;;;;5010491;28;20113;-72
2021/06/02 01:51:34;;;;;;;3.88;1.80;;;18.10;49.40;;;;;;5010915;28;20084;-72
2021/06/02 01:54:41;;;;;;;2.33;1.80;;;18.00;49.90;;;;;;5003622;28;20034;-73
2021/06/02 01:57:33;;;;;;;4.03;1.98;;;18.00;50.10;;;;;;4995434;28;20045;-73
2021/06/02 02:00:17;;;;;;;4.85;2.55;;;17.90;50.50;;;;;;5010599;28;20037;-73
2021/06/02 02:03:04;;;;;;;3.25;1.92;;;17.90;51.00;;;;;;5010615;28;20042;-72
2021/06/02 02:05:55;;;;;;;3.43;1.67;;;17.90;51.20;;;;;;5010318;28;20181;-72
2021/06/02 02:08:46;;;;;;;5.97;1.70;;;17.80;51.70;;;;;;5010281;28;20073;-72
2021/06/02 02:11:32;;;;;;;3.83;1.80;;;17.80;51.90;;;;;;5009949;28;20052;-73
2021/06/02 02:14:37;;;;;;;3.50;1.95;;;17.80;52.10;;;;;;5010047;28;20042;-72
2021/06/02 02:17:21;;;;;;;4.13;2.00;;;17.80;52.50;;;;;;5009862;28;20125;-73
2021/06/02 02:20:24;;;;;;;3.53;2.13;;;17.70;52.60;;;;;;5010122;28;20026;-73
2021/06/02 02:23:23;;;;;;;2.33;1.65;;;17.70;52.90;;;;;;5009831;28;20041;-72
2021/06/02 02:26:21;;;;;;;2.88;2.08;;;17.70;53.40;;;;;;5009891;28;20048;-72
2021/06/02 02:29:32;;;;;;;4.55;1.90;;;17.60;53.90;;;;;;5009922;28;20038;-73
2021/06/02 02:32:10;;;;;;;2.53;1.90;;;17.50;54.00;;;;;;5009330;28;20408;-72
2021/06/02 02:34:53;;;;;;;4.00;1.77;;;17.50;54.60;;;;;;5009571;28;20077;-73
2021/06/02 02:37:45;;;;;;;5.35;2.30;;;17.50;55.00;;;;;;5009611;28;20096;-73
2021/06/02 02:40:25;;;;;;;5.70;2.85;;;17.50;54.90;;;;;;5009768;28;20034;-73
2021/06/02 02:43:06;;;;;;;4.20;2.50;;;17.60;54.70;;;;;;5009712;28;20054;-73
2021/06/02 02:45:41;;;;;;;4.80;2.15;;;17.60;54.90;;;;;;5009746;28;20026;-73
2021/06/02 02:48:16;;;;;;;5.22;1.95;;;17.60;55.10;;;;;;5011258;28;20022;-73
2021/06/02 02:51:06;;;;;;;8.50;2.33;;;17.60;55.50;;;;;;5010080;28;20030;-73
2021/06/02 02:53:43;;;;;;;3.65;2.25;;;17.50;55.80;;;;;;5009829;28;20040;-72
2021/06/02 02:56:20;;;;;;;5.73;2.10;;;17.50;56.10;;;;;;5009619;28;20501;-73
2021/06/02 02:58:54;;;;;;;3.90;2.20;;;17.50;56.70;;;;;;5010179;28;20268;-73
2021/06/02 03:01:25;;;;;;;4.72;2.30;;;17.50;56.60;;;;;;5013477;28;20042;-72
2021/06/02 03:04:03;;;;;;;3.25;2.20;;;17.50;56.90;;;;;;5013214;28;20033;-73
2021/06/02 03:06:38;;;;;;;10.30;2.83;;;17.40;57.00;;;;;;5013383;28;20601;-72
2021/06/02 03:09:39;;;;;;;4.32;2.83;;;17.40;57.60;;;;;;5014811;28;20022;-73
2021/06/02 03:12:37;;;;;;;4.38;2.20;;;17.40;57.90;;;;;;5013545;28;20042;-73
2021/06/02 03:15:09;;;;;;;4.57;2.70;;;17.30;58.50;;;;;;5013651;28;20452;-73
2021/06/02 03:17:50;;;;;;;4.78;2.20;;;17.30;59.10;;;;;;5012938;28;20045;-73
2021/06/02 03:20:18;;;;;;;3.85;2.05;;;17.20;59.60;;;;;;5011746;28;20037;-72
2021/06/02 03:23:02;;;;;;;;;;;17.10;59.80;;;;;;5013537;28;20108;-73
2021/06/02 03:25:38;;;;;;;5.57;2.40;;;17.10;60.10;;;;;;5013160;28;19956;-72
2021/06/02 03:28:18;;;;;;;5.45;2.05;;;17.20;60.20;;;;;;5012935;28;20038;-73
2021/06/02 03:31:01;;;;;;;3.55;2.25;;;17.20;60.30;;;;;;5011870;28;20083;-73
2021/06/02 03:33:37;;;;;;;5.25;2.58;;;17.20;60.60;;;;;;5012864;28;20083;-73
2021/06/02 03:36:21;;;;;;;2.90;2.30;;;17.10;61.60;;;;;;5013225;28;20462;-74
2021/06/02 03:39:12;;;;;;;4.65;2.40;;;17.10;61.10;;;;;;5012923;28;20423;-74
2021/06/02 03:42:00;;;;;;;7.28;2.00;;;17.20;62.00;;;;;;5012796;28;20044;-73
2021/06/02 03:44:59;;;;;;;6.93;2.58;;;17.20;62.80;;;;;;5012626;28;20495;-73
2021/06/02 03:47:58;;;;;;;3.53;2.15;;;17.00;63.30;;;;;;5012565;28;20188;-74
2021/06/02 03:50:32;;;;;;;7.20;2.30;;;17.10;63.40;;;;;;5011883;28;20071;-75
2021/06/02 03:53:41;;;;;;;7.65;3.30;;;17.10;63.80;;;;;;5012645;28;20041;-74
2021/06/02 03:56:47;;;;;;;6.32;3.20;;;17.00;64.00;;;;;;4951637;28;20255;-73
2021/06/02 03:59:22;;;;;;;6.18;2.45;;;17.00;64.90;;;;;;5012017;28;20054;-73
2021/06/02 04:01:48;;;;;;;5.82;2.65;;;17.10;65.00;;;;;;5012425;28;20412;-72
2021/06/02 04:04:30;;;;;;;7.40;2.47;;;17.10;65.50;;;;;;5012563;28;20057;-73
2021/06/02 04:07:06;;;;;;;4.40;2.70;;;17.10;66.30;;;;;;5012606;28;20038;-75
2021/06/02 04:10:11;;;;;;;4.20;2.40;;;17.00;66.40;;;;;;5011839;28;20105;-74
2021/06/02 04:12:44;;;;;;;10.55;3.13;;;17.00;66.90;;;;;;5011806;28;20038;-73
2021/06/02 04:15:11;;;;;;;4.32;2.42;;;17.00;67.50;;;;;;5013474;28;20474;-73
2021/06/02 04:17:38;;;;;;;6.67;3.10;;;17.10;67.70;;;;;;5012460;28;20128;-73
2021/06/02 04:20:06;;;;;;;6.03;2.75;;;17.10;68.30;;;;;;5010710;28;20789;-74
2021/06/02 04:22:32;;;;;;;5.20;2.67;;;17.10;68.20;;;;;;5012021;28;20038;-74
2021/06/02 04:25:03;;;;;;;5.32;2.60;;;17.10;69.00;;;;;;5011947;28;20667;-75
2021/06/02 04:27:33;;;;;;;8.90;2.95;;;17.10;69.70;;;;;;5012031;28;20026;-73
2021/06/02 04:30:04;;;;;;;5.70;2.75;;;17.10;70.50;;;;;;5013663;28;20026;-75
2021/06/02 04:32:39;;;;;;;7.28;2.70;;;17.10;70.90;;;;;;5011808;28;20038;-75
2021/06/02 04:35:10;;;;;;;6.20;3.15;;;17.20;71.20;;;;;;5011707;28;20042;-74
2021/06/02 04:37:36;;;;;;;5.03;2.90;;;17.20;71.70;;;;;;5011680;28;20376;-74
2021/06/02 04:40:06;;;;;;;6.80;3.20;;;17.20;72.80;;;;;;5011318;28;20034;-73
2021/06/02 04:42:40;;;;;;;4.93;2.85;;;17.20;72.40;;;;;;5011528;28;20050;-73
2021/06/02 04:45:07;;;;;;;6.35;3.00;;;17.20;73.00;;;;;;5012923;28;20460;-74
2021/06/02 04:47:34;;;;;;;4.95;2.80;;;17.20;73.30;;;;;;5011874;28;20363;-73
2021/06/02 04:50:23;;;;;;;4.28;3.00;;;17.20;73.80;;;;;;5011813;28;20053;-74
2021/06/02 04:53:18;;;;;;;6.72;2.90;;;17.20;74.80;;;;;;5011924;28;20720;-74
2021/06/02 04:56:06;;;;;;;7.03;2.97;;;17.20;75.10;;;;;;5011344;28;20041;-73
2021/06/02 04:58:47;;;;;;;7.38;2.72;;;17.20;75.30;;;;;;5011397;28;20116;-74
2021/06/02 05:01:30;;;;;;;9.00;2.95;;;17.20;75.70;;;;;;5011280;28;20030;-75
2021/06/02 05:04:37;;;;;;;7.85;2.72;;;17.20;76.30;;;;;;5011312;28;20501;-74
2021/06/02 05:07:27;;;;;;;6.97;2.95;;;17.10;77.10;;;;;;4981509;28;20046;-74
2021/06/02 05:09:56;;;;;;;6.78;2.97;;;17.10;77.00;;;;;;5010639;28;20038;-74
2021/06/02 05:12:52;;;;;;;6.85;2.88;;;17.10;77.70;;;;;;5010647;28;20108;-73
2021/06/02 05:15:27;;;;;;;7.10;3.45;;;17.00;78.10;;;;;;5010522;28;20022;-73
2021/06/02 05:18:10;;;;;;;5.85;2.67;;;17.00;78.40;;;;;;5012391;28;20116;-73
2021/06/02 05:23:32;;;;;;;5.18;2.42;;;16.90;79.10;;;;;;5010475;28;20040;-73
2021/06/02 05:26:35;;;;;;;3.83;2.35;;;16.90;79.50;;;;;;5010894;28;20038;-74
2021/06/02 05:29:32;;;;;;;3.75;2.55;;;17.00;79.60;;;;;;4949914;28;20094;-75
2021/06/02 05:32:18;;;;;;;6.57;2.75;;;16.90;79.90;;;;;;5010093;28;20084;-75
2021/06/02 05:34:56;;;;;;;7.63;2.33;;;16.90;80.40;;;;;;5009850;28;20041;-75
2021/06/02 05:37:51;;;;;;;6.15;2.88;;;16.90;80.40;;;;;;5010235;28;20463;-74
2021/06/02 05:40:35;;;;;;;4.25;2.20;;;17.00;80.90;;;;;;5010067;28;20040;-75
2021/06/02 05:43:29;;;;;;;4.82;2.50;;;16.90;81.30;;;;;;5010033;28;20129;-75
2021/06/02 05:46:33;;;;;;;12.88;3.05;;;17.00;81.50;;;;;;5009341;28;20079;-75
2021/06/02 05:49:39;;;;;;;16.83;3.92;;;16.90;81.70;;;;;;4976674;28;20034;-73
2021/06/02 05:52:22;;;;;;;7.50;2.95;;;17.00;82.30;;;;;;5009897;28;20581;-75
2021/06/02 05:55:21;;;;;;;14.57;3.42;;;17.10;82.10;;;;;;5010087;28;20503;-79
2021/06/02 05:58:04;;;;;;;7.00;2.67;;;17.30;81.80;;;;;;5009263;28;20070;-83
2021/06/02 06:01:08;;;;;;;10.05;3.35;;;17.50;81.50;;;;;;5011127;28;20036;-81
2021/06/02 06:03:48;;;;;;;78.88;10.55;;;17.70;81.20;;;;;;5012298;28;20396;-84
2021/06/02 06:06:48;;;;;;;307.17;32.35;;;17.90;80.90;;;;;;5015593;28;20046;-85
2021/06/02 06:09:38;;;;;;;10.23;3.05;;;18.10;80.00;;;;;;5028008;28;20065;-76
2021/06/02 06:12:06;;;;;;;10.15;2.40;;;18.30;79.70;;;;;;5010355;28;20133;-75
2021/06/02 06:14:57;;;;;;;6.82;2.80;;;18.40;79.60;;;;;;5009908;28;20421;-76
2021/06/02 06:17:40;;;;;;;10.68;3.25;;;18.50;78.80;;;;;;5010466;28;20038;-77
2021/06/02 06:20:30;;;;;;;7.18;2.58;;;18.60;79.10;;;;;;5010303;28;20124;-77
2021/06/02 06:23:11;;;;;;;7.53;3.50;;;18.60;78.70;;;;;;5010094;28;20030;-77
2021/06/02 06:25:52;;;;;;;7.57;3.05;;;18.60;78.10;;;;;;5010035;28;20038;-78
2021/06/02 06:29:09;;;;;;;9.38;3.05;;;18.70;78.40;;;;;;5009487;28;20034;-79
2021/06/02 06:31:42;;;;;;;8.00;2.83;;;18.80;77.90;;;;;;5000080;28;20204;-80
2021/06/02 06:34:13;;;;;;;6.05;2.45;;;18.90;77.20;;;;;;5008309;28;20034;-76
2021/06/02 06:36:41;;;;;;;7.90;3.13;;;19.00;77.50;;;;;;5009963;28;20066;-77
2021/06/02 06:39:21;;;;;;;8.23;2.75;;;19.00;76.80;;;;;;5011411;28;20046;-80
2021/06/02 06:41:48;;;;;;;8.50;3.00;;;19.00;76.80;;;;;;5010488;28;20476;-76
2021/06/02 06:44:15;;;;;;;6.23;3.27;;;19.00;76.90;;;;;;5010368;28;20435;-78
2021/06/02 06:46:44;;;;;;;11.60;3.55;;;19.00;76.50;;;;;;5010364;28;20038;-78
2021/06/02 06:49:12;;;;;;;14.43;2.80;;;18.90;76.30;;;;;;5011087;28;20049;-78
2021/06/02 06:51:40;;;;;;;9.32;3.25;;;19.00;76.50;;;;;;5009788;28;20444;-81
2021/06/02 06:54:09;;;;;;;;;;;19.00;76.50;;;;;;5011872;28;20020;-78
2021/06/02 06:56:38;;;;;;;8.82;3.05;;;19.00;76.50;;;;;;5011294;28;19909;-77
2021/06/02 06:59:05;;;;;;;9.50;3.13;;;19.20;76.40;;;;;;5010654;28;20085;-78
2021/06/02 07:01:33;;;;;;;9.93;3.40;;;19.30;75.90;;;;;;5011381;28;20038;-77
2021/06/02 07:04:00;;;;;;;7.32;3.03;;;19.40;75.70;;;;;;5010670;28;20034;-77
2021/06/02 07:06:26;;;;;;;8.50;3.33;;;19.50;75.40;;;;;;5009656;28;20029;-81
2021/06/02 07:08:52;;;;;;;14.10;3.10;;;19.60;75.20;;;;;;5012974;28;20010;-77
2021/06/02 07:11:18;;;;;;;9.90;3.05;;;19.60;75.40;;;;;;5010690;28;20041;-79
2021/06/02 07:13:46;;;;;;;18.50;3.45;;;19.60;75.30;;;;;;5010992;28;20045;-79
2021/06/02 07:16:14;;;;;;;7.93;3.80;;;19.70;75.30;;;;;;5010891;28;20154;-79
2021/06/02 07:18:44;;;;;;;10.40;3.20;;;19.70;75.70;;;;;;5010818;28;20034;-79
2021/06/02 07:21:11;;;;;;;8.38;2.72;;;19.70;75.30;;;;;;5012198;28;20022;-79
2021/06/02 07:23:41;;;;;;;9.45;4.20;;;19.90;75.10;;;;;;5009103;28;20078;-82
2021/06/02 07:26:08;;;;;;;15.27;5.00;;;20.00;74.80;;;;;;5010115;28;20328;-77
2021/06/02 07:28:37;;;;;;;9.48;4.28;;;20.20;74.60;;;;;;5009085;28;20038;-77
2021/06/02 07:31:04;;;;;;;13.40;2.80;;;20.30;73.80;;;;;;5010068;28;20029;-79
2021/06/02 07:33:29;;;;;;;9.85;2.88;;;20.40;73.30;;;;;;5010246;28;20034;-77
2021/06/02 07:35:55;;;;;;;7.13;2.97;;;20.50;72.90;;;;;;5011588;28;20034;-75
2021/06/02 07:38:21;;;;;;;17.02;2.92;;;20.70;72.90;;;;;;5010091;28;20046;-78
2021/06/02 07:40:47;;;;;;;5.60;3.08;;;20.80;72.20;;;;;;5010084;28;20344;-79
2021/06/02 07:43:13;;;;;;;9.52;2.72;;;21.10;71.80;;;;;;5009887;28;20133;-79
2021/06/02 07:45:38;;;;;;;10.40;4.65;;;21.20;71.70;;;;;;5012193;28;20030;-83
2021/06/02 07:48:04;;;;;;;11.27;5.85;;;21.40;71.80;;;;;;5016016;28;20368;-79
2021/06/02 07:50:30;;;;;;;12.00;2.80;;;21.80;71.30;;;;;;5013427;28;20124;-79
2021/06/02 07:52:56;;;;;;;6.60;2.70;;;22.40;70.10;;;;;;5014549;28;20156;-78
2021/06/02 07:55:21;;;;;;;9.50;4.10;;;23.10;68.80;;;;;;5014445;28;20649;-78
2021/06/02 07:57:47;;;;;;;19.30;3.63;;;23.70;68.60;;;;;;5013427;28;20611;-76
2021/06/02 08:00:14;;;;;;;14.43;5.53;;;24.70;65.50;;;;;;5015566;28;20240;-78
2021/06/02 08:02:39;;;;;;;8.80;2.45;;;24.90;62.60;;;;;;5012655;28;20038;-79
2021/06/02 08:05:06;;;;;;;13.13;2.95;;;25.60;61.40;;;;;;5012214;28;20041;-80
2021/06/02 08:07:34;;;;;;;8.68;3.55;;;26.20;59.80;;;;;;5012500;28;20044;-81
2021/06/02 08:10:00;;;;;;;6.95;2.83;;;26.60;58.30;;;;;;5013426;28;20026;-84
2021/06/02 08:12:25;;;;;;;8.40;2.35;;;27.00;56.80;;;;;;5012837;28;20022;-85
2021/06/02 08:14:52;;;;;;;10.45;3.05;;;26.90;56.00;;;;;;5014335;28;20452;-82
2021/06/02 08:17:18;;;;;;;5.90;2.58;;;26.80;55.40;;;;;;5012795;28;20092;-80
2021/06/02 08:19:44;;;;;;;9.93;2.67;;;26.80;55.00;;;;;;5011666;28;20057;-80
2021/06/02 08:22:12;;;;;;;16.17;6.72;;;27.00;55.20;;;;;;5013291;28;20061;-81
2021/06/02 08:24:39;;;;;;;8.15;2.65;;;27.40;54.60;;;;;;5011605;28;20038;-82
2021/06/02 08:27:09;;;;;;;5.07;2.53;;;27.90;53.90;;;;;;5014903;28;20052;-80
2021/06/02 08:29:35;;;;;;;12.95;3.30;;;28.30;52.80;;;;;;5013027;28;20411;-78
2021/06/02 08:32:00;;;;;;;23.35;6.60;;;28.80;51.70;;;;;;5011380;28;20050;-77
2021/06/02 08:34:26;;;;;;;9.02;3.58;;;28.80;51.50;;;;;;5011929;28;20038;-79
2021/06/02 08:36:53;;;;;;;19.95;4.22;;;29.10;50.70;;;;;;5012396;28;20038;-77
2021/06/02 08:39:18;;;;;;;9.75;3.10;;;29.30;50.60;;;;;;5011243;28;20498;-79
2021/06/02 08:41:45;;;;;;;6.65;2.50;;;29.70;50.00;;;;;;5012820;28;20037;-79
2021/06/02 08:44:11;;;;;;;7.40;2.73;;;30.00;48.70;;;;;;5010870;28;20045;-81
2021/06/02 08:46:37;;;;;;;7.63;3.00;;;29.60;48.70;;;;;;5010831;28;20034;-78
2021/06/02 08:49:03;;;;;;;13.90;5.10;;;29.60;48.60;;;;;;5012766;28;20045;-80
2021/06/02 08:51:33;;;;;;;10.88;3.78;;;29.60;48.20;;;;;;5011094;28;20531;-80
2021/06/02 08:53:59;;;;;;;6.95;3.40;;;30.10;48.20;;;;;;5013845;28;20025;-78
2021/06/02 08:56:26;;;;;;;9.50;3.20;;;30.20;47.50;;;;;;5012157;28;20048;-80
2021/06/02 08:58:52;;;;;;;;;;;30.60;47.00;;;;;;5012192;28;20037;-78
2021/06/02 09:01:18;;;;;;;6.65;2.80;;;30.90;46.50;;;;;;5027223;28;20415;-76
2021/06/02 09:03:43;;;;;;;6.55;2.45;;;31.20;45.90;;;;;;5011284;28;20049;-78
2021/06/02 09:06:10;;;;;;;8.60;2.50;;;31.20;46.10;;;;;;5013660;28;20400;-80
2021/06/02 09:08:39;;;;;;;27.97;3.83;;;31.20;45.80;;;;;;5011450;28;20041;-80
2021/06/02 09:11:17;;;;;;;16.35;3.63;;;31.20;45.40;;;;;;5010386;28;20263;-81
2021/06/02 09:13:44;;;;;;;14.23;3.42;;;31.40;44.90;;;;;;5009995;28;20034;-78
2021/06/02 09:16:27;;;;;;;17.90;8.98;;;31.40;44.50;;;;;;5011134;28;20042;-77
2021/06/02 09:19:03;;;;;;;17.67;7.22;;;30.70;44.60;;;;;;5010775;28;20052;-79
2021/06/02 09:21:37;;;;;;;14.93;4.82;;;30.80;45.70;;;;;;5011285;28;20474;-81
2021/06/02 09:24:03;;;;;;;7.47;3.63;;;30.20;45.90;;;;;;5012533;28;20029;-85
2021/06/02 09:26:30;;;;;;;7.10;3.50;;;29.80;46.50;;;;;;5011047;28;20064;-86
2021/06/02 09:29:02;;;;;;;11.40;2.90;;;29.80;47.10;;;;;;5009985;28;20163;-88
2021/06/02 09:31:31;;;;;;;9.73;4.00;;;29.50;47.50;;;;;;5009446;28;20037;-81
2021/06/02 09:34:17;;;;;;;13.02;3.00;;;29.20;47.40;;;;;;5011006;28;20042;-88
2021/06/02 09:36:46;;;;;;;20.98;5.80;;;29.20;48.00;;;;;;5011451;28;20124;-84
2021/06/02 09:39:15;;;;;;;11.25;4.95;;;29.00;48.20;;;;;;5012413;28;20065;-85
2021/06/02 09:41:52;;;;;;;9.25;4.97;;;28.60;48.90;;;;;;5010734;28;20128;-85
2021/06/02 09:44:20;;;;;;;9.13;4.22;;;28.70;49.40;;;;;;5010684;28;20478;-83
2021/06/02 09:47:09;;;;;;;7.97;3.22;;;28.50;49.70;;;;;;5010615;28;20524;-84
2021/06/02 09:49:47;;;;;;;9.02;3.40;;;28.50;50.00;;;;;;5010279;28;20052;-74
2021/06/02 09:52:13;;;;;;;4.70;3.30;;;28.10;50.40;;;;;;5008859;28;20088;-75
2021/06/02 09:54:39;;;;;;;7.07;3.30;;;27.90;50.60;;;;;;5009803;28;20037;-77
2021/06/02 09:57:16;;;;;;;9.55;3.40;;;27.60;51.60;;;;;;5011646;28;20030;-74
2021/06/02 10:00:02;;;;;;;5.85;3.72;;;27.70;51.70;;;;;;5010250;28;20060;-75
2021/06/02 10:02:27;;;;;;;7.20;3.53;;;27.50;51.60;;;;;;5009998;28;20033;-75
2021/06/02 10:05:05;;;;;;;12.18;4.07;;;27.40;52.10;;;;;;5009666;28;20115;-74
2021/06/02 10:07:31;;;;;;;;;;;27.40;52.50;;;;;;5010004;28;20042;-77
2021/06/02 10:10:20;;;;;;;9.90;4.53;;;27.40;52.80;;;;;;5008400;28;19946;-73
2021/06/02 10:13:11;;;;;;;11.25;4.18;;;27.20;52.50;;;;;;5008920;28;20026;-85
2021/06/02 10:15:39;;;;;;;14.32;4.72;;;27.40;53.10;;;;;;5010256;28;20105;-79
2021/06/02 10:18:22;;;;;;;;;;;27.30;53.20;;;;;;5011326;28;20045;-86
2021/06/02 10:21:07;;;;;;;18.55;5.45;;;27.30;53.60;;;;;;5010230;28;19952;-75
2021/06/02 10:23:36;;;;;;;10.02;4.47;;;27.20;54.00;;;;;;5009807;28;20060;-76
2021/06/02 10:26:04;;;;;;;9.48;4.32;;;27.30;53.70;;;;;;5025106;28;20269;-74
2021/06/02 10:28:30;;;;;;;;;;;27.30;54.20;;;;;;5010240;28;20034;-75
2021/06/02 10:30:57;;;;;;;8.80;4.07;;;27.30;54.00;;;;;;5009798;28;20100;-76
2021/06/02 10:33:23;;;;;;;8.50;3.85;;;27.30;54.10;;;;;;5009022;28;20321;-76
2021/06/02 10:35:49;;;;;;;7.88;4.22;;;27.10;52.40;;;;;;5011056;28;20041;-81
2021/06/02 10:38:17;;;;;;;12.30;5.30;;;27.00;52.30;;;;;;5009181;28;20565;-78
2021/06/02 10:40:44;;;;;;;15.02;5.13;;;26.80;53.30;;;;;;5009893;28;20030;-74
2021/06/02 10:43:13;;;;;;;7.07;3.97;;;26.70;52.90;;;;;;5009396;28;20044;-74
2021/06/02 10:45:49;;;;;;;9.82;3.55;;;26.60;53.10;;;;;;5009360;28;20057;-74
2021/06/02 10:48:15;;;;;;;19.05;5.03;;;26.60;52.80;;;;;;5011201;28;20026;-72
2021/06/02 10:50:46;;;;;;;13.45;4.07;;;26.50;53.00;;;;;;5009498;28;20097;-80
2021/06/02 10:53:18;;;;;;;8.27;4.03;;;26.60;52.80;;;;;;5009338;28;20113;-80
2021/06/02 10:55:45;;;;;;;9.23;3.60;;;26.50;52.70;;;;;;5008099;28;20457;-81
2021/06/02 10:58:41;;;;;;;8.32;4.35;;;26.60;52.60;;;;;;5008722;28;20050;-81
2021/06/02 11:01:06;;;;;;;12.98;3.95;;;26.60;52.90;;;;;;5006547;28;20030;-78
2021/06/02 11:03:33;;;;;;;9.23;4.28;;;26.60;52.80;;;;;;5009448;28;20114;-79
2021/06/02 11:06:17;;;;;;;10.55;4.10;;;26.50;52.30;;;;;;5011261;28;20113;-79
2021/06/02 11:08:48;;;;;;;5.18;2.88;;;26.40;53.40;;;;;;5010158;28;20034;-82
2021/06/02 11:11:33;;;;;;;8.75;3.88;;;26.60;53.10;;;;;;5009587;28;20089;-85
2021/06/02 11:16:44;;;;;;;18.67;4.70;;;26.70;53.70;;;;;;5009784;28;20360;-79
2021/06/02 11:19:13;;;;;;;11.75;4.10;;;26.70;53.90;;;;;;5009258;28;20080;-79
2021/06/02 11:21:54;;;;;;;12.40;3.72;;;26.70;54.40;;;;;;5013066;28;20125;-76
2021/06/02 11:24:41;;;;;;;10.25;3.53;;;26.90;54.80;;;;;;5013017;28;20105;-78
2021/06/02 11:27:13;;;;;;;7.15;3.78;;;26.90;54.40;;;;;;5014339;28;20105;-78
2021/06/02 11:29:50;;;;;;;15.57;4.18;;;26.90;54.20;;;;;;5012821;28;20045;-76
2021/06/02 11:32:26;;;;;;;13.27;4.32;;;26.90;54.10;;;;;;5012415;28;20069;-79
2021/06/02 11:34:52;;;;;;;6.15;3.80;;;26.80;53.70;;;;;;5012200;28;20375;-79
2021/06/02 11:37:22;;;;;;;7.93;3.50;;;26.80;53.90;;;;;;5012857;28;20073;-83
2021/06/02 11:39:51;;;;;;;9.57;3.50;;;26.90;55.00;;;;;;5012987;28;20079;-79
2021/06/02 11:42:39;;;;;;;8.55;3.67;;;26.80;54.40;;;;;;5012570;28;20054;-77
2021/06/02 11:45:16;;;;;;;9.02;3.38;;;26.80;54.90;;;;;;5014002;28;20046;-78
2021/06/02 11:47:48;;;;;;;9.27;3.53;;;26.70;54.90;;;;;;5012735;28;20034;-80
2021/06/02 11:50:19;;;;;;;9.60;3.22;;;26.70;55.10;;;;;;5012663;28;20045;-80
2021/06/02 11:52:52;;;;;;;7.57;5.03;;;26.70;55.40;;;;;;5012606;28;20037;-78
2021/06/02 11:55:18;;;;;;;19.83;6.35;;;26.90;55.40;;;;;;5011455;28;20053;-78
2021/06/02 11:57:46;;;;;;;13.02;4.50;;;26.90;55.10;;;;;;5012355;28;20380;-78
2021/06/02 12:00:17;;;;;;;15.23;4.10;;;26.90;54.40;;;;;;5013900;28;20506;-81
2021/06/02 12:02:46;;;;;;;8.80;3.53;;;26.80;54.60;;;;;;5012535;28;20460;-80
2021/06/02 12:05:19;;;;;;;6.95;3.10;;;26.80;54.60;;;;;;5011244;28;20034;-78
2021/06/02 12:07:54;;;;;;;9.30;3.78;;;26.70;54.70;;;;;;5012438;28;20038;-78
2021/06/02 12:10:21;;;;;;;6.97;3.30;;;26.70;54.90;;;;;;5012585;28;20084;-79
2021/06/02 12:12:47;;;;;;;7.88;3.03;;;26.80;55.10;;;;;;5010281;28;20069;-81
2021/06/02 12:15:15;;;;;;;8.88;3.85;;;26.70;55.20;;;;;;5013557;28;20075;-79
2021/06/02 12:17:42;;;;;;;8.25;3.38;;;26.80;55.20;;;;;;5011019;28;20042;-81
2021/06/02 12:20:13;;;;;;;7.07;3.28;;;26.70;55.20;;;;;;5012407;28;20068;-81
2021/06/02 12:22:39;;;;;;;8.85;3.60;;;26.70;56.00;;;;;;5010512;28;20492;-78
2021/06/02 12:25:07;;;;;;;9.23;3.65;;;26.80;55.90;;;;;;5012240;28;20124;-82
2021/06/02 12:27:40;;;;;;;8.98;3.97;;;26.70;56.30;;;;;;5011460;28;20029;-81
2021/06/02 12:30:16;;;;;;;12.52;5.50;;;26.80;56.00;;;;;;5012359;28;20065;-81
2021/06/02 12:33:09;;;;;;;10.10;3.92;;;26.90;55.80;;;;;;5011175;28;20376;-80
2021/06/02 12:35:36;;;;;;;9.68;3.60;;;26.90;55.60;;;;;;5000816;28;20438;-79
2021/06/02 12:38:32;;;;;;;9.45;3.58;;;26.90;54.80;;;;;;5011568;28;20432;-79
2021/06/02 12:41:02;;;;;;;7.68;4.07;;;26.90;55.10;;;;;;5009982;28;20702;-79
2021/06/02 12:43:37;;;;;;;6.50;4.07;;;26.80;55.60;;;;;;5011727;28;20046;-82
2021/06/02 12:46:11;;;;;;;9.07;3.50;;;26.90;55.50;;;;;;5011216;28;20042;-82
2021/06/02 12:48:40;;;;;;;11.18;6.93;;;26.90;55.00;;;;;;4973066;28;20380;-79
2021/06/02 12:51:17;;;;;;;6.80;3.97;;;27.00;55.10;;;;;;4985995;28;20037;-78
2021/06/02 12:53:45;;;;;;;11.68;3.60;;;26.80;54.90;;;;;;5012395;28;20064;-77
2021/06/02 12:56:15;;;;;;;8.02;3.60;;;26.80;55.60;;;;;;5011591;28;20245;-77
2021/06/02 12:58:42;;;;;;;8.73;3.10;;;26.80;55.50;;;;;;5009446;28;20042;-77
2021/06/02 13:01:16;;;;;;;7.47;3.80;;;26.80;55.90;;;;;;5010536;28;20057;-79
2021/06/02 13:03:48;;;;;;;8.70;4.25;;;26.80;55.90;;;;;;5008650;28;20030;-77
2021/06/02 13:06:22;;;;;;;8.00;3.33;;;26.80;54.60;;;;;;5013106;28;20026;-76
2021/06/02 13:08:49;;;;;;;5.43;3.70;;;26.70;55.10;;;;;;5010473;28;20116;-78
2021/06/02 13:11:26;;;;;;;6.43;3.80;;;26.70;55.00;;;;;;5005024;28;20034;-82
2021/06/02 13:13:53;;;;;;;9.60;3.20;;;26.80;55.10;;;;;;5010465;28;20072;-79
2021/06/02 13:16:20;;;;;;;5.23;3.50;;;26.80;55.40;;;;;;5011799;28;20639;-79
2021/06/02 13:19:01;;;;;;;10.18;4.60;;;26.80;55.30;;;;;;5010674;28;20487;-79
2021/06/02 13:21:30;;;;;;;10.52;4.32;;;26.80;55.10;;;;;;5011925;28;20619;-80
2021/06/02 13:24:19;;;;;;;6.90;3.60;;;26.80;55.50;;;;;;5012893;28;20017;-80
2021/06/02 13:26:53;;;;;;;9.02;3.50;;;26.70;54.60;;;;;;5011800;28;20101;-81
2021/06/02 13:29:19;;;;;;;8.27;3.50;;;26.70;56.00;;;;;;5008595;28;20452;-75
2021/06/02 13:31:51;;;;;;;7.60;3.90;;;26.70;55.40;;;;;;5010920;28;20528;-75